FredonyerEastRWIS Atmospheric Data: 03/19/2019 Summary  Detailed Graphs  Station List

  Temperature     Wind Precipitation Visibility
Timestamp Air Wet
Bulb
Dew-
point
24-hr
Max
24-hr
Min
Relative
Humidity
Atmospheric
Pressure
Avg
Speed
Avg
Dir
Spot
Speed
Spot
Dir
Max
Speed
Max
Dir
  Rate Situation Start End 1 hr 3 hr 6 hr 12 hr 24 hr   Situation
Date Time °F °F °F °F °F % in Hg mph ° mph ° mph ° Y/N in/hr text Date Time Date Time in in in in in mi text
03/19/2019 12:08 AM 29.30 28.58 27.32 58.10 25.34 92.0 Not Reported 0.67 NW 0.67 NW 0.89 NW No 0.000 No Precipitation 03/12/2019 01:16 PM 03/12/2019 01:21 PM 0.000 0.000 0.000 0.000 0.000 Not Reported Not Reported
03/19/2019 12:23 AM 29.30 28.76 27.68 58.10 25.34 93.0 Not Reported 0.67 NW 0.89 NW 0.67 NW No 0.000 No Precipitation 03/12/2019 01:16 PM 03/12/2019 01:21 PM 0.000 0.000 0.000 0.000 0.000 Not Reported Not Reported
03/19/2019 12:40 AM 29.12 28.58 27.50 58.10 25.34 93.0 Not Reported 0.00 N 0.00 NW 1.12 NW No 0.000 No Precipitation 03/12/2019 01:16 PM 03/12/2019 01:21 PM 0.000 0.000 0.000 0.000 0.000 Not Reported Not Reported
03/19/2019 12:53 AM 29.12 28.58 27.68 58.10 25.34 94.0 Not Reported 0.00 NW 0.00 NW 1.12 NW No 0.000 No Precipitation 03/12/2019 01:16 PM 03/12/2019 01:21 PM 0.000 0.000 0.000 0.000 0.000 Not Reported Not Reported
03/19/2019 01:08 AM 28.94 28.58 27.68 58.10 25.34 94.0 Not Reported 0.00 N 0.00 NW 0.00 NW No 0.000 No Precipitation 03/12/2019 01:16 PM 03/12/2019 01:21 PM 0.000 0.000 0.000 0.000 0.000 Not Reported Not Reported
03/19/2019 01:38 AM 28.76 28.40 27.68 58.10 25.34 95.0 Not Reported 0.00 NW 0.00 NW 0.67 NW No 0.000 No Precipitation 03/12/2019 01:16 PM 03/12/2019 01:21 PM 0.000 0.000 0.000 0.000 0.000 Not Reported Not Reported
03/19/2019 01:53 AM 28.40 28.04 27.32 58.10 25.34 95.0 Not Reported 0.00 N 0.00 NW 0.00 NW No 0.000 No Precipitation 03/12/2019 01:16 PM 03/12/2019 01:21 PM 0.000 0.000 0.000 0.000 0.000 Not Reported Not Reported
03/19/2019 02:08 AM 28.40 28.04 27.50 58.10 25.34 96.0 Not Reported 0.00 N 0.00 NW 0.00 NW No 0.000 No Precipitation 03/12/2019 01:16 PM 03/12/2019 01:21 PM 0.000 0.000 0.000 0.000 0.000 Not Reported Not Reported
03/19/2019 02:23 AM 28.58 28.22 27.68 58.10 25.34 96.0 Not Reported 1.12 N 0.00 N 1.79 NW No 0.000 No Precipitation 03/12/2019 01:16 PM 03/12/2019 01:21 PM 0.000 0.000 0.000 0.000 0.000 Not Reported Not Reported
03/19/2019 02:38 AM 28.58 28.22 27.68 58.10 25.34 96.0 Not Reported 0.89 NW 0.22 NW 1.57 N No 0.000 No Precipitation 03/12/2019 01:16 PM 03/12/2019 01:21 PM 0.000 0.000 0.000 0.000 0.000 Not Reported Not Reported
03/19/2019 02:53 AM 28.94 28.58 28.04 58.10 25.34 96.0 Not Reported 0.45 NW 0.00 NW 1.34 NW No 0.000 No Precipitation 03/12/2019 01:16 PM 03/12/2019 01:21 PM 0.000 0.000 0.000 0.000 0.000 Not Reported Not Reported
03/19/2019 03:08 AM 29.12 28.76 28.22 58.10 25.34 96.0 Not Reported 0.00 NW 0.67 NW 0.89 NW No 0.000 No Precipitation 03/12/2019 01:16 PM 03/12/2019 01:21 PM 0.000 0.000 0.000 0.000 0.000 Not Reported Not Reported
03/19/2019 03:23 AM 29.30 28.94 28.40 58.10 25.34 96.0 Not Reported 0.00 N 0.00 W 0.89 NW No 0.000 No Precipitation 03/12/2019 01:16 PM 03/12/2019 01:21 PM 0.000 0.000 0.000 0.000 0.000 Not Reported Not Reported
03/19/2019 03:38 AM 29.30 29.12 28.58 58.10 25.34 96.0 Not Reported 0.00 NW 0.67 NW 1.12 NW No 0.000 No Precipitation 03/12/2019 01:16 PM 03/12/2019 01:21 PM 0.000 0.000 0.000 0.000 0.000 Not Reported Not Reported
03/19/2019 03:53 AM 29.66 29.30 28.76 58.10 25.34 96.0 Not Reported 0.45 N 0.00 N 1.34 NW No 0.000 No Precipitation 03/12/2019 01:16 PM 03/12/2019 01:21 PM 0.000 0.000 0.000 0.000 0.000 Not Reported Not Reported
03/19/2019 04:08 AM 29.48 29.12 28.40 58.10 25.34 95.0 Not Reported 0.67 N 0.45 N 0.67 N No 0.000 No Precipitation 03/12/2019 01:16 PM 03/12/2019 01:21 PM 0.000 0.000 0.000 0.000 0.000 Not Reported Not Reported
03/19/2019 04:23 AM 29.48 29.12 28.40 58.10 25.34 95.0 Not Reported 0.45 N 0.00 NW 0.45 N No 0.000 No Precipitation 03/12/2019 01:16 PM 03/12/2019 01:21 PM 0.000 0.000 0.000 0.000 0.000 Not Reported Not Reported
03/19/2019 04:38 AM 29.30 28.94 28.40 58.10 25.34 95.0 Not Reported 0.22 NW 0.22 NW 0.67 NW No 0.000 No Precipitation 03/12/2019 01:16 PM 03/12/2019 01:21 PM 0.000 0.000 0.000 0.000 0.000 Not Reported Not Reported
03/19/2019 04:53 AM 29.30 29.12 28.40 58.10 25.34 96.0 Not Reported 0.00 N 0.00 NW 0.00 NW No 0.000 No Precipitation 03/12/2019 01:16 PM 03/12/2019 01:21 PM 0.000 0.000 0.000 0.000 0.000 Not Reported Not Reported
03/19/2019 05:08 AM 29.48 29.12 28.40 58.10 25.34 95.0 Not Reported 0.45 NE 0.00 NE 0.00 NW No 0.000 No Precipitation 03/12/2019 01:16 PM 03/12/2019 01:21 PM 0.000 0.000 0.000 0.000 0.000 Not Reported Not Reported
03/19/2019 05:23 AM 29.66 29.48 28.76 58.10 25.34 96.0 Not Reported 0.00 NW 0.67 NW 1.12 NW No 0.000 No Precipitation 03/12/2019 01:16 PM 03/12/2019 01:21 PM 0.000 0.000 0.000 0.000 0.000 Not Reported Not Reported
03/19/2019 05:38 AM 29.48 29.12 28.40 58.10 25.34 95.0 Not Reported 0.00 N 0.00 NW 0.67 NW No 0.000 No Precipitation 03/12/2019 01:16 PM 03/12/2019 01:21 PM 0.000 0.000 0.000 0.000 0.000 Not Reported Not Reported
03/19/2019 05:53 AM 29.12 28.94 28.22 58.10 25.34 96.0 Not Reported 1.12 N 0.00 N 1.34 NW No 0.000 No Precipitation 03/12/2019 01:16 PM 03/12/2019 01:21 PM 0.000 0.000 0.000 0.000 0.000 Not Reported Not Reported
03/19/2019 06:08 AM 29.30 28.94 28.40 58.10 25.34 96.0 Not Reported 0.00 N 0.00 NW 1.34 N No 0.000 No Precipitation 03/12/2019 01:16 PM 03/12/2019 01:21 PM 0.000 0.000 0.000 0.000 0.000 Not Reported Not Reported
03/19/2019 06:23 AM 29.66 29.12 28.40 58.10 25.34 95.0 Not Reported 0.00 NW 0.00 NW 0.22 NW No 0.000 No Precipitation 03/12/2019 01:16 PM 03/12/2019 01:21 PM 0.000 0.000 0.000 0.000 0.000 Not Reported Not Reported
03/19/2019 06:38 AM 29.66 29.12 28.40 58.10 25.34 95.0 Not Reported 0.00 N 0.00 N 0.45 NW No 0.000 No Precipitation 03/12/2019 01:16 PM 03/12/2019 01:21 PM 0.000 0.000 0.000 0.000 0.000 Not Reported Not Reported
03/19/2019 06:53 AM 29.48 29.12 28.40 58.10 25.34 95.0 Not Reported 0.00 N 0.00 N 0.89 N No 0.000 No Precipitation 03/12/2019 01:16 PM 03/12/2019 01:21 PM 0.000 0.000 0.000 0.000 0.000 Not Reported Not Reported
03/19/2019 07:08 AM 29.12 28.76 28.04 58.10 25.34 95.0 Not Reported 0.00 N 0.00 NE 0.45 N No 0.000 No Precipitation 03/12/2019 01:16 PM 03/12/2019 01:21 PM 0.000 0.000 0.000 0.000 0.000 Not Reported Not Reported
03/19/2019 07:23 AM 28.76 28.40 27.68 58.10 25.34 95.0 Not Reported 0.00 N 0.00 SE 0.00 NE No 0.000 No Precipitation 03/12/2019 01:16 PM 03/12/2019 01:21 PM 0.000 0.000 0.000 0.000 0.000 Not Reported Not Reported
03/19/2019 07:38 AM 29.30 28.94 28.40 58.10 25.52 95.0 Not Reported 0.00 N 0.00 N 0.89 N No 0.000 No Precipitation 03/12/2019 01:16 PM 03/12/2019 01:21 PM 0.000 0.000 0.000 0.000 0.000 Not Reported Not Reported
03/19/2019 07:53 AM 30.20 29.66 28.94 58.10 26.24 94.0 Not Reported 0.22 NW 0.89 NW 0.00 N No 0.000 No Precipitation 03/12/2019 01:16 PM 03/12/2019 01:21 PM 0.000 0.000 0.000 0.000 0.000 Not Reported Not Reported
03/19/2019 08:08 AM 31.64 30.74 29.48 58.10 27.50 91.0 Not Reported 0.00 S 0.00 S 0.89 NW No 0.000 No Precipitation 03/12/2019 01:16 PM 03/12/2019 01:21 PM 0.000 0.000 0.000 0.000 0.000 Not Reported Not Reported
03/19/2019 08:23 AM 33.44 32.00 30.02 58.10 28.40 85.0 Not Reported 0.89 N 1.12 N 1.34 N No 0.000 No Precipitation 03/12/2019 01:16 PM 03/12/2019 01:21 PM 0.000 0.000 0.000 0.000 0.000 Not Reported Not Reported
03/19/2019 08:38 AM 35.78 33.26 29.30 58.10 28.40 76.0 Not Reported 0.67 SE 0.22 SW 1.12 N No 0.000 No Precipitation 03/12/2019 01:16 PM 03/12/2019 01:21 PM 0.000 0.000 0.000 0.000 0.000 Not Reported Not Reported
03/19/2019 08:53 AM 38.12 34.52 28.94 58.10 28.40 68.0 Not Reported 0.00 N 0.00 S 2.46 NE No 0.000 No Precipitation 03/12/2019 01:16 PM 03/12/2019 01:21 PM 0.000 0.000 0.000 0.000 0.000 Not Reported Not Reported
03/19/2019 09:08 AM 40.10 35.06 27.50 58.10 28.40 59.0 Not Reported 0.67 N 2.91 N 1.12 S No 0.000 No Precipitation 03/12/2019 01:16 PM 03/12/2019 01:21 PM 0.000 0.000 0.000 0.000 0.000 Not Reported Not Reported
03/19/2019 09:23 AM 45.14 37.40 26.06 58.10 28.40 46.0 Not Reported 0.89 E 0.00 E 2.46 E No 0.000 No Precipitation 03/12/2019 01:16 PM 03/12/2019 01:21 PM 0.000 0.000 0.000 0.000 0.000 Not Reported Not Reported
03/19/2019 09:38 AM 44.24 37.22 26.96 58.10 28.40 50.0 Not Reported 1.12 SE 1.57 SE 2.24 S No 0.000 No Precipitation 03/12/2019 01:16 PM 03/12/2019 01:21 PM 0.000 0.000 0.000 0.000 0.000 Not Reported Not Reported
03/19/2019 09:53 AM 46.22 38.30 26.96 58.10 28.40 46.0 Not Reported 1.12 SE 2.68 S 5.37 NE No 0.000 No Precipitation 03/12/2019 01:16 PM 03/12/2019 01:21 PM 0.000 0.000 0.000 0.000 0.000 Not Reported Not Reported
03/19/2019 10:08 AM 46.76 38.84 27.50 58.10 28.40 46.0 Not Reported 1.79 N 1.34 SE 3.13 SE No 0.000 No Precipitation 03/12/2019 01:16 PM 03/12/2019 01:21 PM 0.000 0.000 0.000 0.000 0.000 Not Reported Not Reported
03/19/2019 10:23 AM 47.48 38.84 26.42 58.10 28.40 43.0 Not Reported 2.46 E 2.01 N 2.68 E No 0.000 No Precipitation 03/12/2019 01:16 PM 03/12/2019 01:21 PM 0.000 0.000 0.000 0.000 0.000 Not Reported Not Reported
03/19/2019 10:38 AM 49.28 39.74 25.70 58.10 28.40 39.0 Not Reported 2.91 E 2.68 SE 5.82 NE No 0.000 No Precipitation 03/12/2019 01:16 PM 03/12/2019 01:21 PM 0.000 0.000 0.000 0.000 0.000 Not Reported Not Reported
03/19/2019 10:53 AM 50.18 40.46 27.14 58.10 28.40 40.0 Not Reported 2.91 N 0.45 NE 5.14 E No 0.000 No Precipitation 03/12/2019 01:16 PM 03/12/2019 01:21 PM 0.000 0.000 0.000 0.000 0.000 Not Reported Not Reported
03/19/2019 11:08 AM 48.92 39.92 27.14 58.10 28.40 42.0 Not Reported 2.46 NE 4.47 NE 5.14 NE No 0.000 No Precipitation 03/12/2019 01:16 PM 03/12/2019 01:21 PM 0.000 0.000 0.000 0.000 0.000 Not Reported Not Reported
03/19/2019 11:23 AM 50.72 41.00 28.04 58.10 28.40 40.0 Not Reported 1.79 W 0.89 N 5.14 N No 0.000 No Precipitation 03/12/2019 01:16 PM 03/12/2019 01:21 PM 0.000 0.000 0.000 0.000 0.000 Not Reported Not Reported
03/19/2019 11:38 AM 51.26 41.00 26.96 58.10 28.40 38.0 Not Reported 3.36 E 1.57 NE 5.82 NE No 0.000 No Precipitation 03/12/2019 01:16 PM 03/12/2019 01:21 PM 0.000 0.000 0.000 0.000 0.000 Not Reported Not Reported
03/19/2019 11:53 AM 50.72 40.64 26.24 58.10 28.40 38.0 Not Reported 1.79 E 2.91 SE 6.04 N No 0.000 No Precipitation 03/12/2019 01:16 PM 03/12/2019 01:21 PM 0.000 0.000 0.000 0.000 0.000 Not Reported Not Reported
03/19/2019 12:08 PM 51.26 40.82 26.06 58.10 28.40 36.0 Not Reported 2.68 S 4.92 NE 7.83 NE No 0.000 No Precipitation 03/12/2019 01:16 PM 03/12/2019 01:21 PM 0.000 0.000 0.000 0.000 0.000 Not Reported Not Reported
03/19/2019 12:23 PM 51.98 41.00 25.16 58.10 28.40 34.0 Not Reported 1.57 SE 1.57 SE 4.03 SW No 0.000 No Precipitation 03/12/2019 01:16 PM 03/12/2019 01:21 PM 0.000 0.000 0.000 0.000 0.000 Not Reported Not Reported
03/19/2019 12:38 PM 53.24 42.08 26.78 58.10 28.40 35.0 Not Reported 1.79 NE 2.68 N 4.70 NE No 0.000 No Precipitation 03/12/2019 01:16 PM 03/12/2019 01:21 PM 0.000 0.000 0.000 0.000 0.000 Not Reported Not Reported
03/19/2019 12:53 PM 51.44 41.18 26.96 58.10 28.40 38.0 Not Reported 1.79 NE 0.22 E 6.93 SE No 0.000 No Precipitation 03/12/2019 01:16 PM 03/12/2019 01:21 PM 0.000 0.000 0.000 0.000 0.000 Not Reported Not Reported
03/19/2019 01:08 PM 53.24 42.26 27.68 58.10 28.40 36.0 Not Reported 2.01 E 1.34 E 6.93 E No 0.000 No Precipitation 03/12/2019 01:16 PM 03/12/2019 01:21 PM 0.000 0.000 0.000 0.000 0.000 Not Reported Not Reported
03/19/2019 01:23 PM 53.78 42.80 28.40 58.10 28.40 37.0 Not Reported 3.58 N 1.34 E 3.80 N No 0.000 No Precipitation 03/12/2019 01:16 PM 03/12/2019 01:21 PM 0.000 0.000 0.000 0.000 0.000 Not Reported Not Reported
03/19/2019 01:38 PM 56.48 44.24 28.58 58.10 28.40 33.0 Not Reported 1.57 E 3.80 E 5.59 N No 0.000 No Precipitation 03/12/2019 01:16 PM 03/12/2019 01:21 PM 0.000 0.000 0.000 0.000 0.000 Not Reported Not Reported
03/19/2019 01:53 PM 54.68 43.16 28.22 58.10 28.40 35.0 Not Reported 2.46 E 4.03 N 7.16 E No 0.000 No Precipitation 03/12/2019 01:16 PM 03/12/2019 01:21 PM 0.000 0.000 0.000 0.000 0.000 Not Reported Not Reported
03/19/2019 02:08 PM 55.22 43.16 26.96 58.10 28.40 33.0 Not Reported 5.37 N 4.70 N 7.61 NE No 0.000 No Precipitation 03/12/2019 01:16 PM 03/12/2019 01:21 PM 0.000 0.000 0.000 0.000 0.000 Not Reported Not Reported
03/19/2019 02:23 PM 55.04 43.70 29.12 58.10 28.40 36.0 Not Reported 4.92 NE 2.24 N 5.14 E No 0.000 No Precipitation 03/12/2019 01:16 PM 03/12/2019 01:21 PM 0.000 0.000 0.000 0.000 0.000 Not Reported Not Reported
03/19/2019 02:38 PM 55.94 43.70 27.68 58.10 28.40 33.0 Not Reported 3.58 E 2.91 NE 6.93 NE No 0.000 No Precipitation 03/12/2019 01:16 PM 03/12/2019 01:21 PM 0.000 0.000 0.000 0.000 0.000 Not Reported Not Reported
03/19/2019 02:53 PM 56.12 43.88 27.86 58.10 28.40 33.0 Not Reported 2.24 NE 2.68 NE 5.37 SE No 0.000 No Precipitation 03/12/2019 01:16 PM 03/12/2019 01:21 PM 0.000 0.000 0.000 0.000 0.000 Not Reported Not Reported
03/19/2019 03:08 PM 55.58 43.70 28.94 58.10 28.40 35.0 Not Reported 2.46 NE 2.01 NE 4.47 NE No 0.000 No Precipitation 03/12/2019 01:16 PM 03/12/2019 01:21 PM 0.000 0.000 0.000 0.000 0.000 Not Reported Not Reported
03/19/2019 03:23 PM 55.40 43.52 28.04 58.10 28.40 34.0 Not Reported 1.79 SE 1.57 N 6.26 SE No 0.000 No Precipitation 03/12/2019 01:16 PM 03/12/2019 01:21 PM 0.000 0.000 0.000 0.000 0.000 Not Reported Not Reported
03/19/2019 03:38 PM 57.02 43.88 26.60 58.10 28.40 30.0 Not Reported 1.57 S 2.68 E 4.25 NE No 0.000 No Precipitation 03/12/2019 01:16 PM 03/12/2019 01:21 PM 0.000 0.000 0.000 0.000 0.000 Not Reported Not Reported
03/19/2019 03:53 PM 56.48 43.88 27.68 58.10 28.40 32.0 Not Reported 3.58 NE 1.57 E 4.92 NE No 0.000 No Precipitation 03/12/2019 01:16 PM 03/12/2019 01:21 PM 0.000 0.000 0.000 0.000 0.000 Not Reported Not Reported
03/19/2019 04:08 PM 55.22 42.98 26.42 58.10 28.40 32.0 Not Reported 3.13 SE 2.91 NE 5.14 NE No 0.000 No Precipitation 03/12/2019 01:16 PM 03/12/2019 01:21 PM 0.000 0.000 0.000 0.000 0.000 Not Reported Not Reported
03/19/2019 04:23 PM 54.32 42.80 27.86 57.92 28.40 35.0 Not Reported 2.91 NE 1.57 NE 4.25 SE No 0.000 No Precipitation 03/12/2019 01:16 PM 03/12/2019 01:21 PM 0.000 0.000 0.000 0.000 0.000 Not Reported Not Reported
03/19/2019 04:38 PM 55.22 43.88 29.48 57.92 28.40 36.0 Not Reported 1.57 SW 1.57 NE 4.92 NE No 0.000 No Precipitation 03/12/2019 01:16 PM 03/12/2019 01:21 PM 0.000 0.000 0.000 0.000 0.000 Not Reported Not Reported
03/19/2019 04:53 PM 53.96 42.62 27.68 57.92 28.40 35.0 Not Reported 2.68 NE 1.34 NE 3.13 N No 0.000 No Precipitation 03/12/2019 01:16 PM 03/12/2019 01:21 PM 0.000 0.000 0.000 0.000 0.000 Not Reported Not Reported
03/19/2019 05:08 PM 51.80 42.26 29.84 57.92 28.40 42.0 Not Reported 1.57 N 0.00 NW 5.37 NE No 0.000 No Precipitation 03/12/2019 01:16 PM 03/12/2019 01:21 PM 0.000 0.000 0.000 0.000 0.000 Not Reported Not Reported
03/19/2019 05:23 PM 54.32 43.16 28.94 57.92 28.40 37.0 Not Reported 2.46 SE 0.22 S 6.49 E No 0.000 No Precipitation 03/12/2019 01:16 PM 03/12/2019 01:21 PM 0.000 0.000 0.000 0.000 0.000 Not Reported Not Reported
03/19/2019 05:38 PM 52.16 41.54 27.14 57.92 28.40 37.0 Not Reported 3.80 NE 2.68 E 4.70 SE No 0.000 No Precipitation 03/12/2019 01:16 PM 03/12/2019 01:21 PM 0.000 0.000 0.000 0.000 0.000 Not Reported Not Reported
03/19/2019 05:53 PM 47.30 39.74 29.48 57.92 28.40 49.0 Not Reported 0.89 W 1.12 NE 2.46 SE No 0.000 No Precipitation 03/12/2019 01:16 PM 03/12/2019 01:21 PM 0.000 0.000 0.000 0.000 0.000 Not Reported Not Reported
03/19/2019 06:08 PM 43.16 37.76 30.38 57.92 28.40 60.0 Not Reported 1.79 N 0.67 N 2.91 NE No 0.000 No Precipitation 03/12/2019 01:16 PM 03/12/2019 01:21 PM 0.000 0.000 0.000 0.000 0.000 Not Reported Not Reported
03/19/2019 06:23 PM 41.18 37.22 31.82 57.92 28.40 68.0 Not Reported 1.79 NW 2.01 NW 4.03 N No 0.000 No Precipitation 03/12/2019 01:16 PM 03/12/2019 01:21 PM 0.000 0.000 0.000 0.000 0.000 Not Reported Not Reported
03/19/2019 06:38 PM 40.28 36.68 31.64 57.92 28.40 70.0 Not Reported 1.34 N 1.12 N 2.24 NW No 0.000 No Precipitation 03/12/2019 01:16 PM 03/12/2019 01:21 PM 0.000 0.000 0.000 0.000 0.000 Not Reported Not Reported
03/19/2019 06:53 PM 38.84 35.78 31.46 57.92 28.40 73.0 Not Reported 1.12 NW 0.67 SW 2.24 W No 0.000 No Precipitation 03/12/2019 01:16 PM 03/12/2019 01:21 PM 0.000 0.000 0.000 0.000 0.000 Not Reported Not Reported
03/19/2019 07:08 PM 37.58 34.88 31.28 57.92 28.40 77.0 Not Reported 0.89 NW 0.00 N 2.01 NW No 0.000 No Precipitation 03/12/2019 01:16 PM 03/12/2019 01:21 PM 0.000 0.000 0.000 0.000 0.000 Not Reported Not Reported
03/19/2019 07:23 PM 37.04 34.70 31.64 57.92 28.40 80.0 Not Reported 0.89 W 2.24 N 1.79 NW No 0.000 No Precipitation 03/12/2019 01:16 PM 03/12/2019 01:21 PM 0.000 0.000 0.000 0.000 0.000 Not Reported Not Reported
03/19/2019 07:38 PM 35.96 33.98 31.28 57.92 28.40 82.0 Not Reported 1.12 NW 2.01 NE 2.24 N No 0.000 No Precipitation 03/12/2019 01:16 PM 03/12/2019 01:21 PM 0.000 0.000 0.000 0.000 0.000 Not Reported Not Reported
03/19/2019 07:53 PM 36.86 34.16 30.74 57.92 28.40 77.0 Not Reported 0.22 N 2.68 W 1.79 NW No 0.000 No Precipitation 03/12/2019 01:16 PM 03/12/2019 01:21 PM 0.000 0.000 0.000 0.000 0.000 Not Reported Not Reported
03/19/2019 08:08 PM 36.32 34.34 31.46 57.92 28.40 81.0 Not Reported 1.34 N 1.34 N 2.91 NW No 0.000 No Precipitation 03/12/2019 01:16 PM 03/12/2019 01:21 PM 0.000 0.000 0.000 0.000 0.000 Not Reported Not Reported
03/19/2019 08:23 PM 38.48 35.06 30.56 57.92 28.40 72.0 Not Reported 2.01 S 0.45 N 3.80 NW No 0.000 No Precipitation 03/12/2019 01:16 PM 03/12/2019 01:21 PM 0.000 0.000 0.000 0.000 0.000 Not Reported Not Reported
03/19/2019 08:38 PM 36.50 34.34 31.46 57.92 28.40 81.0 Not Reported 0.00 NW 0.67 SW 3.13 S No 0.000 No Precipitation 03/12/2019 01:16 PM 03/12/2019 01:21 PM 0.000 0.000 0.000 0.000 0.000 Not Reported Not Reported
03/19/2019 08:53 PM 38.48 35.24 30.56 57.92 28.40 72.0 Not Reported 0.89 NW 1.79 NW 6.04 N No 0.000 No Precipitation 03/12/2019 01:16 PM 03/12/2019 01:21 PM 0.000 0.000 0.000 0.000 0.000 Not Reported Not Reported
03/19/2019 09:09 PM 37.76 35.06 31.46 57.92 28.40 77.0 Not Reported 1.57 N 1.34 N 4.03 SW No 0.000 No Precipitation 03/12/2019 01:16 PM 03/12/2019 01:21 PM 0.000 0.000 0.000 0.000 0.000 Not Reported Not Reported
03/19/2019 09:23 PM 37.94 35.06 31.10 57.92 28.40 75.0 Not Reported 0.67 W 1.12 NW 4.03 N No 0.000 No Precipitation 03/12/2019 01:16 PM 03/12/2019 01:21 PM 0.000 0.000 0.000 0.000 0.000 Not Reported Not Reported
03/19/2019 09:38 PM 36.68 34.34 31.46 57.92 28.40 80.0 Not Reported 0.67 SW 2.24 W 2.01 W No 0.000 No Precipitation 03/12/2019 01:16 PM 03/12/2019 01:21 PM 0.000 0.000 0.000 0.000 0.000 Not Reported Not Reported
03/19/2019 09:53 PM 36.68 34.52 31.64 57.92 28.40 81.0 Not Reported 1.79 N 0.67 E 2.01 N No 0.000 No Precipitation 03/12/2019 01:16 PM 03/12/2019 01:21 PM 0.000 0.000 0.000 0.000 0.000 Not Reported Not Reported
03/19/2019 10:08 PM 36.68 34.52 31.46 57.92 28.40 80.0 Not Reported 1.79 SW 0.67 W 2.91 NW No 0.000 No Precipitation 03/12/2019 01:16 PM 03/12/2019 01:21 PM 0.000 0.000 0.000 0.000 0.000 Not Reported Not Reported
03/19/2019 10:23 PM 36.14 34.16 31.64 57.92 28.40 82.0 Not Reported 1.12 W 0.00 SE 2.91 NW No 0.000 No Precipitation 03/12/2019 01:16 PM 03/12/2019 01:21 PM 0.000 0.000 0.000 0.000 0.000 Not Reported Not Reported
03/19/2019 10:39 PM 36.14 34.34 31.64 57.92 28.40 82.0 Not Reported 0.45 NE 1.12 NW 2.01 S No 0.000 No Precipitation 03/12/2019 01:16 PM 03/12/2019 01:21 PM 0.000 0.000 0.000 0.000 0.000 Not Reported Not Reported
03/19/2019 10:53 PM 36.68 34.52 31.28 57.92 28.40 79.0 Not Reported 1.79 NE 1.57 NW 5.37 NW No 0.000 No Precipitation 03/12/2019 01:16 PM 03/12/2019 01:21 PM 0.000 0.000 0.000 0.000 0.000 Not Reported Not Reported
03/19/2019 11:08 PM 35.60 33.80 31.46 57.92 28.40 83.0 Not Reported 0.00 N 0.00 W 3.58 NE No 0.000 No Precipitation 03/12/2019 01:16 PM 03/12/2019 01:21 PM 0.000 0.000 0.000 0.000 0.000 Not Reported Not Reported
03/19/2019 11:23 PM 35.60 33.80 31.28 57.92 28.40 83.0 Not Reported 2.46 NW 2.46 W 1.79 NW No 0.000 No Precipitation 03/12/2019 01:16 PM 03/12/2019 01:21 PM 0.000 0.000 0.000 0.000 0.000 Not Reported Not Reported
03/19/2019 11:38 PM 36.68 34.52 31.28 57.92 28.40 79.0 Not Reported 0.22 S 0.22 S 4.47 N No 0.000 No Precipitation 03/12/2019 01:16 PM 03/12/2019 01:21 PM 0.000 0.000 0.000 0.000 0.000 Not Reported Not Reported
03/19/2019 11:53 PM 35.96 33.98 31.46 57.92 28.40 82.0 Not Reported 0.22 SW 0.89 W 3.13 N No 0.000 No Precipitation 03/12/2019 01:16 PM 03/12/2019 01:21 PM 0.000 0.000 0.000 0.000 0.000 Not Reported Not Reported